Bridgewater, Connecticut
Current Conditions -  °F | °C
As of 5:50 AM on Monday 24 Nov 2014 (Local Time) from KOXC Reporting Station
Moderate Rain Moderate Rain  
Wind Chill: 57°   Ceiling: 500
Heat Index: 57°   Visibility: 4mi
Dew Point: 54°   Wind: 20mph
Humidity: 88%   Direction: 170°S
Pressure: 29.78"   Gusts: 28mph
Location:  41.53°N, 73.37°W
Report Text: KOXC 241050Z 17017G24KT 4SM RA BR OVC005 14/12 A2978
Loading
Personal Weather Stations






























Interactive Weather Map New forecast layout! Learn more

10-Day Weather Forecast

Advertisements
Track Severe Weather on mobile